createdAt,value
2022-12-29T00:00:09.401Z,3.95
2022-12-29T00:02:36.399Z,4.30
2022-12-29T00:05:03.550Z,4.40
2022-12-29T00:07:30.383Z,3.97
2022-12-29T00:09:57.258Z,3.65
2022-12-29T00:12:24.131Z,4.00
2022-12-29T00:15:10.262Z,3.75
2022-12-29T00:17:37.092Z,3.80
2022-12-29T00:20:23.244Z,3.88
2022-12-29T00:23:08.684Z,3.75
2022-12-29T00:25:55.720Z,3.65
2022-12-29T00:28:41.152Z,3.97
2022-12-29T00:31:48.267Z,4.25
2022-12-29T00:34:33.682Z,4.05
2022-12-29T00:37:01.420Z,4.97
2022-12-29T00:39:46.763Z,5.72
2022-12-29T00:42:39.784Z,4.47
2022-12-29T00:45:07.053Z,5.50
2022-12-29T00:47:34.069Z,4.80
2022-12-29T00:50:01.143Z,5.88
2022-12-29T00:52:28.023Z,5.80
2022-12-29T00:54:54.899Z,5.40
2022-12-29T00:57:21.772Z,5.38
2022-12-29T00:59:48.755Z,5.72
2022-12-29T01:02:15.713Z,5.43
2022-12-29T01:04:42.767Z,5.78
2022-12-29T01:07:09.631Z,5.97
2022-12-29T01:09:55.088Z,5.97
2022-12-29T01:12:41.529Z,5.80
2022-12-29T01:15:10.576Z,5.07
2022-12-29T01:17:37.388Z,4.97
2022-12-29T01:20:05.221Z,4.85
2022-12-29T01:22:32.067Z,4.95
2022-12-29T01:24:59.002Z,5.18
2022-12-29T01:27:25.842Z,5.00
2022-12-29T01:29:52.775Z,5.05
2022-12-29T01:32:19.835Z,4.47
2022-12-29T01:34:46.679Z,4.30
2022-12-29T01:37:14.925Z,4.30
2022-12-29T01:39:41.734Z,4.40
2022-12-29T01:42:18.230Z,3.92
2022-12-29T01:44:52.375Z,4.40
2022-12-29T01:47:39.589Z,4.50
2022-12-29T01:50:26.887Z,4.38
2022-12-29T01:53:06.611Z,4.00
2022-12-29T01:55:40.380Z,4.00
2022-12-29T01:58:08.528Z,4.22
2022-12-29T02:00:35.444Z,4.13
2022-12-29T02:03:02.492Z,4.32
2022-12-29T02:05:43.261Z,4.55
2022-12-29T02:08:12.284Z,4.43
2022-12-29T02:10:41.578Z,4.38
2022-12-29T02:13:08.410Z,4.30
2022-12-29T02:15:59.615Z,4.57
2022-12-29T02:18:53.883Z,4.22
2022-12-29T02:21:46.599Z,3.90
2022-12-29T02:24:35.344Z,4.03
2022-12-29T02:27:05.187Z,3.38
2022-12-29T02:29:51.060Z,3.75
2022-12-29T02:32:38.774Z,4.05
2022-12-29T02:35:25.975Z,4.40
2022-12-29T02:38:27.088Z,4.15
2022-12-29T02:40:56.688Z,4.20
2022-12-29T02:43:44.481Z,4.72
2022-12-29T02:46:35.073Z,5.47
2022-12-29T02:49:07.828Z,4.78
2022-12-29T02:51:47.804Z,4.93
2022-12-29T02:54:35.716Z,4.82
2022-12-29T02:57:02.615Z,4.70
2022-12-29T02:59:30.002Z,4.80
2022-12-29T03:02:18.317Z,4.43
2022-12-29T03:04:56.479Z,4.63
2022-12-29T03:07:35.307Z,4.28
2022-12-29T03:10:11.241Z,4.40
2022-12-29T03:13:08.491Z,3.80
2022-12-29T03:16:00.902Z,3.80
2022-12-29T03:18:50.691Z,4.28
2022-12-29T03:21:47.956Z,5.63
2022-12-29T03:24:16.407Z,5.43
2022-12-29T03:26:47.962Z,5.60
2022-12-29T03:29:16.432Z,4.97
2022-12-29T03:31:44.779Z,4.50
2022-12-29T03:34:14.678Z,4.55
2022-12-29T03:36:49.845Z,4.68
2022-12-29T03:39:19.580Z,3.97
2022-12-29T03:41:47.629Z,4.00
2022-12-29T03:44:14.733Z,4.20
2022-12-29T03:46:41.689Z,4.63
2022-12-29T03:49:09.114Z,4.28
2022-12-29T03:51:36.004Z,3.97
2022-12-29T03:54:03.179Z,4.05
2022-12-29T03:56:30.010Z,4.10
2022-12-29T03:58:56.905Z,3.80
2022-12-29T04:01:23.841Z,3.80
2022-12-29T04:03:50.837Z,3.63
2022-12-29T04:06:17.887Z,3.97
2022-12-29T04:08:44.728Z,3.95
2022-12-29T04:11:11.601Z,3.85
2022-12-29T04:13:42.024Z,3.45
2022-12-29T04:16:09.556Z,3.70
2022-12-29T04:18:36.453Z,3.53
2022-12-29T04:21:06.574Z,3.67
2022-12-29T04:23:37.152Z,3.53
2022-12-29T04:26:04.976Z,3.55
2022-12-29T04:28:32.407Z,3.88
2022-12-29T04:30:59.509Z,3.83
2022-12-29T04:33:27.012Z,3.75
2022-12-29T04:35:55.038Z,3.83
2022-12-29T04:38:23.958Z,3.53
2022-12-29T04:40:51.498Z,3.55
2022-12-29T04:43:20.327Z,3.55
2022-12-29T04:45:48.973Z,3.60
2022-12-29T04:48:16.244Z,3.55
2022-12-29T04:50:43.807Z,3.30
2022-12-29T04:53:10.792Z,3.50
2022-12-29T04:55:37.640Z,3.50
2022-12-29T04:58:04.743Z,3.83
2022-12-29T05:00:31.573Z,3.50
2022-12-29T05:02:58.669Z,3.60
2022-12-29T05:05:25.636Z,2.63
2022-12-29T05:07:52.726Z,3.08
2022-12-29T05:10:19.640Z,2.88
2022-12-29T05:12:46.519Z,3.47
2022-12-29T05:15:13.428Z,2.88
2022-12-29T05:17:40.324Z,2.78
2022-12-29T05:20:08.243Z,2.83
2022-12-29T05:22:35.187Z,2.70
2022-12-29T05:25:02.095Z,2.92
2022-12-29T05:27:29.179Z,3.13
2022-12-29T05:29:56.310Z,2.90
2022-12-29T05:32:23.265Z,2.92
2022-12-29T05:34:50.804Z,2.70
2022-12-29T05:37:17.747Z,2.92
2022-12-29T05:39:45.243Z,3.30
2022-12-29T05:42:12.393Z,3.00
2022-12-29T05:44:39.335Z,2.70
2022-12-29T05:47:06.283Z,3.00
2022-12-29T05:49:33.922Z,2.67
2022-12-29T05:52:00.821Z,2.53
2022-12-29T05:54:27.727Z,2.70
2022-12-29T05:56:54.628Z,2.80
2022-12-29T05:59:21.483Z,2.70
2022-12-29T06:01:48.460Z,2.35
2022-12-29T06:04:15.978Z,2.90
2022-12-29T06:06:43.483Z,3.00
2022-12-29T06:09:11.554Z,2.72
2022-12-29T06:11:38.850Z,2.53
2022-12-29T06:14:05.767Z,2.55
2022-12-29T06:16:32.744Z,2.60
2022-12-29T06:18:59.623Z,2.58
2022-12-29T06:21:26.527Z,2.75
2022-12-29T06:23:53.398Z,2.80
2022-12-29T06:26:20.409Z,2.35
2022-12-29T06:28:47.220Z,2.83
2022-12-29T06:31:14.317Z,2.58
2022-12-29T06:33:41.226Z,2.42
2022-12-29T06:36:08.254Z,3.10
2022-12-29T06:38:36.288Z,2.90
2022-12-29T06:41:03.278Z,2.80
2022-12-29T06:43:31.468Z,3.75
2022-12-29T06:45:58.341Z,3.03
2022-12-29T06:48:25.505Z,2.55
2022-12-29T06:50:52.360Z,3.13
2022-12-29T06:53:19.221Z,2.50
2022-12-29T06:55:46.101Z,3.05
2022-12-29T06:58:12.962Z,2.92
2022-12-29T07:00:40.566Z,3.00
2022-12-29T07:03:07.591Z,2.45
2022-12-29T07:05:34.802Z,2.65
2022-12-29T07:08:01.653Z,3.45
2022-12-29T07:10:28.839Z,2.97
2022-12-29T07:12:55.644Z,6.22
2022-12-29T07:15:22.460Z,4.55
2022-12-29T07:17:50.693Z,3.03
2022-12-29T07:20:21.933Z,3.05
2022-12-29T07:22:53.290Z,6.53
2022-12-29T07:25:20.144Z,3.63
2022-12-29T07:27:47.000Z,3.30
2022-12-29T07:30:14.175Z,2.65
2022-12-29T07:32:41.556Z,2.80
2022-12-29T07:35:08.690Z,3.75
2022-12-29T07:37:35.987Z,2.53
2022-12-29T07:40:04.467Z,2.53
2022-12-29T07:42:32.694Z,2.80
2022-12-29T07:44:59.596Z,2.58
2022-12-29T07:47:27.510Z,22.42
2022-12-29T07:49:54.503Z,45.88
2022-12-29T07:52:21.378Z,51.13
2022-12-29T07:54:48.331Z,37.15
2022-12-29T07:57:15.202Z,21.27
2022-12-29T07:59:42.130Z,9.77
2022-12-29T08:02:12.630Z,6.30
2022-12-29T08:04:39.835Z,5.00
2022-12-29T08:07:06.756Z,4.13
2022-12-29T08:09:33.566Z,20.95
2022-12-29T08:12:00.447Z,12.02
2022-12-29T08:14:27.342Z,14.85
2022-12-29T08:16:54.254Z,20.73
2022-12-29T08:19:21.134Z,16.90
2022-12-29T08:21:47.970Z,14.20
2022-12-29T08:24:14.810Z,25.23
2022-12-29T08:26:41.644Z,8.73
2022-12-29T08:29:08.523Z,7.18
2022-12-29T08:31:35.796Z,10.50
2022-12-29T08:34:04.379Z,7.70
2022-12-29T08:36:34.068Z,6.85
2022-12-29T08:39:00.929Z,5.63
2022-12-29T08:41:27.778Z,4.57
2022-12-29T08:43:54.638Z,4.38
2022-12-29T08:46:21.545Z,4.07
2022-12-29T08:48:48.507Z,4.32
2022-12-29T08:51:18.214Z,3.70
2022-12-29T08:53:48.369Z,9.03
2022-12-29T08:56:15.218Z,20.70
2022-12-29T08:58:42.094Z,7.50
2022-12-29T09:01:10.305Z,22.17
2022-12-29T09:04:13.040Z,10.65
2022-12-29T09:06:24.166Z,6.05
2022-12-29T09:08:51.002Z,6.90
2022-12-29T09:11:21.951Z,5.55
2022-12-29T09:13:48.980Z,5.00
2022-12-29T09:16:17.249Z,4.68
2022-12-29T09:18:45.100Z,4.00
2022-12-29T09:21:12.838Z,3.90
2022-12-29T09:23:40.407Z,3.55
2022-12-29T09:26:08.630Z,3.60
2022-12-29T09:28:36.290Z,15.07
2022-12-29T09:31:03.637Z,23.05
2022-12-29T09:33:30.695Z,12.80
2022-12-29T09:35:59.229Z,5.40
2022-12-29T09:38:27.379Z,6.97
2022-12-29T09:41:08.383Z,4.25
2022-12-29T09:43:47.500Z,4.00
2022-12-29T09:46:31.183Z,3.08
2022-12-29T09:48:57.991Z,2.45
2022-12-29T09:51:26.586Z,2.47
2022-12-29T09:53:59.736Z,2.20
2022-12-29T09:56:28.862Z,2.00
2022-12-29T09:59:11.932Z,1.90
2022-12-29T10:01:45.416Z,2.28
2022-12-29T10:04:12.487Z,2.00
2022-12-29T10:07:30.856Z,1.90
2022-12-29T10:09:58.005Z,1.80
2022-12-29T10:12:42.458Z,2.40
2022-12-29T10:15:44.747Z,3.00
2022-12-29T10:18:33.719Z,4.50
2022-12-29T10:21:20.543Z,5.97
2022-12-29T10:23:51.686Z,4.93
2022-12-29T10:26:29.005Z,4.00
2022-12-29T10:29:07.800Z,4.28
2022-12-29T10:31:44.293Z,10.07
2022-12-29T10:34:25.823Z,18.90
2022-12-29T10:36:59.678Z,8.00
2022-12-29T10:42:04.714Z,5.43
2022-12-29T10:44:32.799Z,4.63
2022-12-29T10:47:05.718Z,6.90
2022-12-29T10:49:35.204Z,5.63
2022-12-29T10:52:05.125Z,6.20
2022-12-29T10:54:40.151Z,4.72
2022-12-29T10:57:14.520Z,5.05
2022-12-29T10:59:42.593Z,4.22
2022-12-29T11:02:12.340Z,3.60
2022-12-29T11:04:48.325Z,10.93
2022-12-29T11:07:25.051Z,11.98
2022-12-29T11:09:54.286Z,5.03
2022-12-29T11:12:27.612Z,4.03
2022-12-29T11:15:14.396Z,4.60
2022-12-29T11:17:49.919Z,4.07
2022-12-29T11:20:54.043Z,4.25
2022-12-29T11:23:26.460Z,5.63
2022-12-29T11:26:27.597Z,5.22
2022-12-29T11:29:09.218Z,8.80
2022-12-29T11:32:11.089Z,4.90
2022-12-29T11:34:38.014Z,3.20
2022-12-29T11:37:14.163Z,2.90
2022-12-29T11:40:09.163Z,5.10
2022-12-29T11:43:05.827Z,4.75
2022-12-29T11:45:36.175Z,3.00
2022-12-29T11:48:18.453Z,2.80
2022-12-29T11:51:00.675Z,2.75
2022-12-29T11:53:49.766Z,2.35
2022-12-29T11:56:23.912Z,2.20
2022-12-29T11:58:52.059Z,2.13
2022-12-29T12:01:33.986Z,1.83
2022-12-29T12:04:07.901Z,2.20
2022-12-29T12:06:42.480Z,1.90
2022-12-29T12:09:24.273Z,2.05
2022-12-29T12:11:55.058Z,1.63
2022-12-29T12:14:28.361Z,1.77
2022-12-29T12:17:01.110Z,1.80
2022-12-29T12:19:44.505Z,1.67
2022-12-29T12:22:28.866Z,1.88
2022-12-29T12:25:10.592Z,1.48
2022-12-29T12:27:44.299Z,1.40
2022-12-29T12:30:19.277Z,1.60
2022-12-29T12:32:56.078Z,1.65
2022-12-29T12:35:45.653Z,1.75
2022-12-29T12:38:17.169Z,1.70
2022-12-29T12:41:08.012Z,1.70
2022-12-29T12:44:06.025Z,1.80
2022-12-29T12:46:42.710Z,1.80
2022-12-29T12:49:38.669Z,1.73
2022-12-29T12:52:30.566Z,1.38
2022-12-29T12:55:07.601Z,1.90
2022-12-29T12:57:54.886Z,1.80
2022-12-29T13:00:24.448Z,1.30
2022-12-29T13:03:22.799Z,1.80
2022-12-29T13:06:19.202Z,1.88
2022-12-29T13:09:20.907Z,1.80
2022-12-29T13:11:47.683Z,1.75
2022-12-29T13:14:33.091Z,2.05
2022-12-29T13:17:21.977Z,1.75
2022-12-29T13:19:55.460Z,1.70
2022-12-29T13:22:28.797Z,1.27
2022-12-29T13:25:24.963Z,1.58
2022-12-29T13:28:22.108Z,1.63
2022-12-29T13:30:58.218Z,2.00
2022-12-29T13:33:33.781Z,1.40
2022-12-29T13:36:21.508Z,1.60
2022-12-29T13:38:51.782Z,1.60
2022-12-29T13:41:40.683Z,1.50
2022-12-29T13:44:11.461Z,1.70
2022-12-29T13:46:46.122Z,1.60
2022-12-29T13:49:25.445Z,1.83
2022-12-29T13:52:00.796Z,1.67
2022-12-29T13:54:46.703Z,1.77
2022-12-29T13:57:32.439Z,1.60
2022-12-29T14:00:05.423Z,1.92
2022-12-29T14:02:44.216Z,1.65
2022-12-29T14:05:22.969Z,1.63
2022-12-29T14:07:58.362Z,1.77
2022-12-29T14:10:36.400Z,1.60
2022-12-29T14:13:17.260Z,1.75
2022-12-29T14:15:46.952Z,1.75
2022-12-29T14:18:18.568Z,1.70
2022-12-29T14:20:56.139Z,1.70
2022-12-29T14:24:01.091Z,1.90
2022-12-29T14:26:30.825Z,1.80
2022-12-29T14:29:16.119Z,1.80
2022-12-29T14:31:43.241Z,1.70
2022-12-29T14:34:10.066Z,1.77
2022-12-29T14:36:58.823Z,1.92
2022-12-29T14:39:45.321Z,1.60
2022-12-29T14:42:12.152Z,1.63
2022-12-29T14:44:52.423Z,1.90
2022-12-29T14:47:36.483Z,2.17
2022-12-29T14:53:04.096Z,2.00
2022-12-29T14:55:37.455Z,1.98
2022-12-29T14:58:13.527Z,1.70
2022-12-29T15:00:42.250Z,1.85
2022-12-29T15:03:33.174Z,1.75
2022-12-29T15:06:09.500Z,2.03
2022-12-29T15:08:41.766Z,1.83
2022-12-29T15:11:15.504Z,1.70
2022-12-29T15:13:45.019Z,2.10
2022-12-29T15:16:26.244Z,2.40
2022-12-29T15:18:54.389Z,2.03
2022-12-29T15:21:29.218Z,2.20
2022-12-29T15:23:56.317Z,2.35
2022-12-29T15:26:23.997Z,2.10
2022-12-29T15:28:52.955Z,2.10
2022-12-29T15:31:30.118Z,2.15
2022-12-29T15:34:12.528Z,2.65
2022-12-29T15:36:41.062Z,2.20
2022-12-29T15:39:39.006Z,2.80
2022-12-29T15:42:28.574Z,37.80
2022-12-29T15:45:09.303Z,55.92
2022-12-29T15:47:37.538Z,23.70
2022-12-29T15:50:09.858Z,11.98
2022-12-29T15:52:40.871Z,11.35
2022-12-29T15:55:21.522Z,6.05
2022-12-29T15:57:48.549Z,7.75
2022-12-29T16:00:27.526Z,5.00
2022-12-29T16:02:56.662Z,3.58
2022-12-29T16:05:23.737Z,2.72
2022-12-29T16:07:58.787Z,2.47
2022-12-29T16:10:37.771Z,4.22
2022-12-29T16:13:12.559Z,3.13
2022-12-29T16:15:39.519Z,5.35
2022-12-29T16:18:06.475Z,4.20
2022-12-29T16:20:41.984Z,10.82
2022-12-29T16:23:20.466Z,14.70
2022-12-29T16:25:47.717Z,11.75
2022-12-29T16:28:21.693Z,8.43
2022-12-29T16:30:58.104Z,6.07
2022-12-29T16:33:38.365Z,3.90
2022-12-29T16:36:28.854Z,4.07
2022-12-29T16:39:23.111Z,6.65
2022-12-29T16:41:51.425Z,6.28
2022-12-29T16:44:24.454Z,7.47
2022-12-29T16:47:13.013Z,5.13
2022-12-29T16:49:43.186Z,4.43
2022-12-29T16:52:18.014Z,4.72
2022-12-29T16:54:52.716Z,5.13
2022-12-29T16:57:37.921Z,4.22
2022-12-29T17:00:08.548Z,3.25
2022-12-29T17:02:45.766Z,2.85
2022-12-29T17:05:17.138Z,2.60
2022-12-29T17:07:45.045Z,3.42
2022-12-29T17:10:13.412Z,4.03
2022-12-29T17:12:41.694Z,3.63
2022-12-29T17:15:20.825Z,3.95
2022-12-29T17:17:49.215Z,3.95
2022-12-29T17:20:24.931Z,3.10
2022-12-29T17:22:55.247Z,2.65
2022-12-29T17:25:24.043Z,3.15
2022-12-29T17:27:56.998Z,3.13
2022-12-29T17:30:31.222Z,3.60
2022-12-29T17:33:06.127Z,3.33
2022-12-29T17:35:33.052Z,3.25
2022-12-29T17:37:59.895Z,3.40
2022-12-29T17:40:33.486Z,3.05
2022-12-29T17:43:00.818Z,3.53
2022-12-29T17:45:32.553Z,3.97
2022-12-29T17:48:01.818Z,4.25
2022-12-29T17:50:30.851Z,3.70
2022-12-29T17:53:02.028Z,3.25
2022-12-29T17:55:36.745Z,2.50
2022-12-29T17:58:21.133Z,2.47
2022-12-29T18:00:50.161Z,2.38
2022-12-29T18:03:27.873Z,2.53
2022-12-29T18:05:55.408Z,2.55
2022-12-29T18:08:22.477Z,2.40
2022-12-29T18:10:51.909Z,2.75
2022-12-29T18:13:28.092Z,2.60
2022-12-29T18:15:57.957Z,2.72
2022-12-29T18:18:27.149Z,3.47
2022-12-29T18:20:56.362Z,3.05
2022-12-29T18:23:37.673Z,2.88
2022-12-29T18:26:05.716Z,2.47
2022-12-29T18:28:32.939Z,2.20
2022-12-29T18:31:01.888Z,2.58
2022-12-29T18:33:29.221Z,2.63
2022-12-29T18:35:59.353Z,2.40
2022-12-29T18:38:27.474Z,2.35
2022-12-29T18:40:54.450Z,2.58
2022-12-29T18:43:21.344Z,2.80
2022-12-29T18:45:48.956Z,2.40
2022-12-29T18:48:17.438Z,2.58
2022-12-29T18:50:45.260Z,2.40
2022-12-29T18:53:21.286Z,2.25
2022-12-29T18:55:48.116Z,2.40
2022-12-29T18:58:15.449Z,2.50
2022-12-29T19:00:42.988Z,2.20
2022-12-29T19:03:13.464Z,2.50
2022-12-29T19:05:42.454Z,2.60
2022-12-29T19:08:10.726Z,2.40
2022-12-29T19:10:38.730Z,1.80
2022-12-29T19:13:06.296Z,2.63
2022-12-29T19:15:41.103Z,2.50
2022-12-29T19:18:43.017Z,2.45
2022-12-29T19:20:57.518Z,2.28
2022-12-29T19:23:26.004Z,2.30
2022-12-29T19:25:54.783Z,2.30
2022-12-29T19:28:25.059Z,2.22
2022-12-29T19:30:57.071Z,2.38
2022-12-29T19:33:24.716Z,2.20
2022-12-29T19:35:52.526Z,2.15
2022-12-29T19:38:20.288Z,2.42
2022-12-29T19:40:50.822Z,2.35
2022-12-29T19:43:18.365Z,2.70
2022-12-29T19:45:45.660Z,2.30
2022-12-29T19:48:15.106Z,2.20
2022-12-29T19:50:42.517Z,2.47
2022-12-29T19:53:09.458Z,2.55
2022-12-29T19:55:36.391Z,2.30
2022-12-29T19:58:03.761Z,2.38
2022-12-29T20:00:30.682Z,2.55
2022-12-29T20:02:57.744Z,2.45
2022-12-29T20:05:24.807Z,2.33
2022-12-29T20:07:51.691Z,2.42
2022-12-29T20:10:18.601Z,2.58
2022-12-29T20:12:45.555Z,2.70
2022-12-29T20:15:12.586Z,2.65
2022-12-29T20:18:11.657Z,2.67
2022-12-29T20:20:26.290Z,2.30
2022-12-29T20:22:53.132Z,2.85
2022-12-29T20:25:44.185Z,2.83
2022-12-29T20:28:07.311Z,2.47
2022-12-29T20:30:34.196Z,2.55
2022-12-29T20:33:06.110Z,2.63
2022-12-29T20:35:34.829Z,2.55
2022-12-29T20:38:01.901Z,2.35
2022-12-29T20:40:28.814Z,2.17
2022-12-29T20:42:55.776Z,2.85
2022-12-29T20:45:22.598Z,2.17
2022-12-29T20:47:49.564Z,2.20
2022-12-29T20:50:16.411Z,2.20
2022-12-29T20:52:44.059Z,2.25
2022-12-29T20:55:10.948Z,2.22
2022-12-29T20:58:13.611Z,2.53
2022-12-29T21:00:25.862Z,3.22
2022-12-29T21:02:53.263Z,3.00
2022-12-29T21:05:24.992Z,3.00
2022-12-29T21:07:53.410Z,3.33
2022-12-29T21:10:20.871Z,3.45
2022-12-29T21:12:48.541Z,5.60
2022-12-29T21:15:15.917Z,14.85
2022-12-29T21:17:43.788Z,23.88
2022-12-29T21:20:20.216Z,33.63
2022-12-29T21:22:48.333Z,30.50
2022-12-29T21:25:15.209Z,23.48
2022-12-29T21:27:44.198Z,22.77
2022-12-29T21:30:11.888Z,12.20
2022-12-29T21:32:39.360Z,8.23
2022-12-29T21:35:07.207Z,5.90
2022-12-29T21:37:34.326Z,4.60
2022-12-29T21:40:01.227Z,4.53
2022-12-29T21:42:28.103Z,3.35
2022-12-29T21:45:30.305Z,3.00
2022-12-29T21:48:26.507Z,2.80
2022-12-29T21:51:32.079Z,2.20
2022-12-29T21:54:20.992Z,2.22
2022-12-29T21:56:48.843Z,2.20
2022-12-29T21:59:35.516Z,2.60
2022-12-29T22:02:22.427Z,2.20
2022-12-29T22:05:07.889Z,2.42
2022-12-29T22:07:53.365Z,2.53
2022-12-29T22:10:38.653Z,2.30
2022-12-29T22:13:05.536Z,2.33
2022-12-29T22:15:37.395Z,2.58
2022-12-29T22:18:05.029Z,2.80
2022-12-29T22:20:33.913Z,2.35
2022-12-29T22:23:00.954Z,2.53
2022-12-29T22:25:28.299Z,2.50
2022-12-29T22:27:59.280Z,2.20
2022-12-29T22:30:27.890Z,2.45
2022-12-29T22:32:55.008Z,2.45
2022-12-29T22:35:21.897Z,2.78
2022-12-29T22:37:48.882Z,2.85
2022-12-29T22:40:16.186Z,2.58
2022-12-29T22:42:43.050Z,3.00
2022-12-29T22:45:10.289Z,3.60
2022-12-29T22:47:37.311Z,3.90
2022-12-29T22:50:04.968Z,3.60
2022-12-29T22:52:31.853Z,3.30
2022-12-29T22:55:04.572Z,3.50
2022-12-29T22:57:33.512Z,3.38
2022-12-29T23:00:00.332Z,3.53
2022-12-29T23:02:27.716Z,3.35
2022-12-29T23:05:04.126Z,3.00
2022-12-29T23:07:33.295Z,2.90
2022-12-29T23:10:00.240Z,3.63
2022-12-29T23:12:30.533Z,2.63
2022-12-29T23:14:57.558Z,2.55
2022-12-29T23:17:25.373Z,2.90
2022-12-29T23:19:52.400Z,3.00
2022-12-29T23:22:19.899Z,2.70
2022-12-29T23:24:46.768Z,2.97
2022-12-29T23:27:13.973Z,2.50
2022-12-29T23:29:40.825Z,2.95
2022-12-29T23:32:07.733Z,2.78
2022-12-29T23:34:34.632Z,2.88
2022-12-29T23:37:01.488Z,2.70
2022-12-29T23:39:29.217Z,2.47
2022-12-29T23:41:56.039Z,2.85
2022-12-29T23:44:22.897Z,2.50
2022-12-29T23:46:49.828Z,2.53
2022-12-29T23:49:16.727Z,2.67
2022-12-29T23:51:43.596Z,2.38
2022-12-29T23:54:10.477Z,2.47
2022-12-29T23:56:37.338Z,2.70
2022-12-29T23:59:06.006Z,2.30
